METAR / TAF

ENOV 280850Z VRB03KT 9999 -SHSNRA FEW02 BKN032 01/M02 Q1019 RMK WIND 2090FT 16021KT


ENSD 280850Z 19006KT 070V140 9999 -SN SCT028 BKN037 02/M03 Q1020 RMK WIND 1138FT 19007G17KT


ENAL 280850Z 19015G28KT 9999 VCSH SCT040 04/M02 Q1016


ENML 280850Z 23012KT 9999 BKN039 03/M02 Q1017